»·PEaware :: N1718G KRAL-KTUS

N1718G :: KRAL-KTUS

FLIGHT INFORMATION

Flight Status: Arrived
Operator: Privately registered:
United States
More flights under this callsign
Pilot: Spencer M. (27733)
Aircraft: Unknown
(LEG2)
More flights by this aircraft type
Origin: KRAL Riverside Mun
United States
Destination: KTUS Tucson Intl
United States
More flights between these airports :: More routes between these airports
Route: RAL1 PDZ V186 NIKKL V64 BLH V94 GBN DINGO5
File this flight plan on PilotEdge
Remarks:
Altitude:
(Current/Filed)
15,000ft
Speed:
(Current/Filed)
230kts
Departed: 18-Aug-20 10:02 AM
Arrived: 18-Aug-20 11:47 AM
Distance/Time
Traveled:
344nm/1:45
Distance/Time
To Go:
Arrived

Flight Plot

Page will automatically refresh every two minutes.

Flight plan parsing failed; only flown route is shown


Map Options




Map Legend


Flown Route
Filed Route
Departure Airport
Arrival Airport
Navaid (VOR, NDB)
Fix

Horizontal Profiles

Position Reports

Time Latitude Longitude Heading Altitude Ground
Speed
18-Aug-20 09:48 33.950866 -117.444389 104 817ft 0kts
18-Aug-20 09:49 33.950866 -117.444389 104 817ft 0kts
18-Aug-20 09:50 33.950866 -117.444389 104 817ft 0kts
18-Aug-20 09:52 33.950866 -117.444389 104 817ft 0kts
18-Aug-20 09:53 33.950885 -117.444295 54 817ft 2kts
18-Aug-20 09:54 33.951366 -117.442884 103 817ft 7kts
18-Aug-20 09:55 33.950778 -117.439914 104 817ft 10kts
18-Aug-20 09:56 33.950103 -117.436404 103 817ft 11kts
18-Aug-20 09:57 33.949944 -117.434751 324 817ft 0kts
18-Aug-20 09:58 33.949944 -117.434751 324 817ft 0kts
18-Aug-20 09:59 33.949944 -117.434751 324 817ft 0kts
18-Aug-20 10:00 33.949944 -117.434751 324 817ft 0kts
18-Aug-20 10:01 33.950078 -117.434821 347 817ft 4kts
18-Aug-20 10:02 33.954181 -117.453698 285 997ft 144kts
18-Aug-20 10:03 33.964452 -117.502386 282 1646ft 144kts
18-Aug-20 10:04 33.966103 -117.546326 213 1967ft 142kts
18-Aug-20 10:05 33.930224 -117.557630 192 2471ft 130kts
18-Aug-20 10:06 33.911062 -117.528003 109 2781ft 128kts
18-Aug-20 10:07 33.883865 -117.500745 146 3672ft 143kts
18-Aug-20 10:08 33.844333 -117.466820 144 4692ft 198kts
18-Aug-20 10:08 33.805310 -117.433368 144 5526ft 213kts
18-Aug-20 10:10 33.748178 -117.384314 140 6681ft 218kts
18-Aug-20 10:10 33.736042 -117.327772 96 7562ft 210kts
18-Aug-20 10:11 33.728462 -117.261049 96 9051ft 195kts
18-Aug-20 10:12 33.721425 -117.198607 96 10544ft 185kts
18-Aug-20 10:13 33.716204 -117.138573 96 12035ft 178kts
18-Aug-20 10:14 33.710490 -117.081188 96 13527ft 169kts
18-Aug-20 10:15 33.704481 -117.027125 96 14983ft 160kts
18-Aug-20 10:16 33.697175 -116.962429 96 15083ft 226kts
18-Aug-20 10:17 33.689040 -116.882233 96 15081ft 253kts
18-Aug-20 10:18 33.680999 -116.796367 96 15059ft 262kts
18-Aug-20 10:19 33.672823 -116.708789 96 15031ft 264kts
18-Aug-20 10:20 33.664649 -116.620981 96 15006ft 264kts
18-Aug-20 10:21 33.656546 -116.533632 96 14993ft 264kts
18-Aug-20 10:22 33.648445 -116.446013 96 14978ft 264kts
18-Aug-20 10:23 33.640373 -116.358421 96 14964ft 264kts
18-Aug-20 10:24 33.633067 -116.271061 94 14957ft 263kts
18-Aug-20 10:25 33.627573 -116.183281 94 14953ft 263kts
18-Aug-20 10:26 33.625537 -116.095529 90 14951ft 263kts
18-Aug-20 10:27 33.625148 -116.007922 90 14977ft 262kts
18-Aug-20 10:28 33.624773 -115.920389 90 14988ft 262kts
18-Aug-20 10:29 33.624419 -115.832662 90 14988ft 263kts
18-Aug-20 10:30 33.624088 -115.745088 90 14988ft 263kts
18-Aug-20 10:31 33.623780 -115.657244 90 14988ft 263kts
18-Aug-20 10:32 33.623497 -115.569408 90 14988ft 263kts
18-Aug-20 10:33 33.623236 -115.481778 90 14988ft 263kts
18-Aug-20 10:34 33.621565 -115.394101 94 14998ft 263kts
18-Aug-20 10:35 33.615752 -115.306574 95 15020ft 262kts
18-Aug-20 10:36 33.610181 -115.219316 91 15040ft 262kts
18-Aug-20 10:37 33.609014 -115.131426 91 15052ft 263kts
18-Aug-20 10:38 33.607781 -115.044136 92 15053ft 261kts
18-Aug-20 10:39 33.606314 -114.957091 92 14997ft 259kts
18-Aug-20 10:40 33.604185 -114.871063 93 14997ft 257kts
18-Aug-20 10:41 33.600363 -114.785553 94 14997ft 257kts
18-Aug-20 10:42 33.592669 -114.700160 97 14997ft 257kts
18-Aug-20 10:43 33.583362 -114.615157 96 14997ft 257kts
18-Aug-20 10:44 33.574086 -114.530127 96 14997ft 257kts
18-Aug-20 10:45 33.567898 -114.444639 93 14997ft 257kts
18-Aug-20 10:46 33.562042 -114.359347 94 14997ft 257kts
18-Aug-20 10:47 33.555379 -114.274187 95 14997ft 257kts
18-Aug-20 10:48 33.548743 -114.188932 95 14997ft 257kts
18-Aug-20 10:49 33.542652 -114.103434 94 14997ft 257kts
18-Aug-20 10:50 33.537344 -114.018275 94 14997ft 257kts
18-Aug-20 10:51 33.529532 -113.934478 116 15004ft 258kts
18-Aug-20 10:52 33.496411 -113.857815 116 14952ft 260kts
18-Aug-20 10:53 33.463184 -113.781010 117 14951ft 259kts
18-Aug-20 10:54 33.429306 -113.705562 117 15007ft 258kts
18-Aug-20 10:55 33.394452 -113.630668 119 15024ft 258kts
18-Aug-20 10:56 33.358338 -113.556473 119 15041ft 258kts
18-Aug-20 10:57 33.324934 -113.480353 117 15052ft 258kts
18-Aug-20 10:58 33.290914 -113.404752 117 15020ft 260kts
18-Aug-20 10:59 33.256186 -113.328984 118 15012ft 259kts
18-Aug-20 11:00 33.221531 -113.253562 118 15004ft 259kts
18-Aug-20 11:01 33.186764 -113.178045 118 14996ft 259kts
18-Aug-20 11:02 33.151995 -113.102680 118 14988ft 259kts
18-Aug-20 11:03 33.117190 -113.027398 118 14980ft 259kts
18-Aug-20 11:04 33.082554 -112.952649 117 15007ft 257kts
18-Aug-20 11:05 33.047961 -112.878206 117 15007ft 255kts
18-Aug-20 11:06 33.013704 -112.804609 117 15006ft 252kts
18-Aug-20 11:07 32.979696 -112.731641 117 15006ft 250kts
18-Aug-20 11:08 32.946661 -112.659343 113 15002ft 248kts
18-Aug-20 11:09 32.919692 -112.584105 113 15005ft 247kts
18-Aug-20 11:10 32.891305 -112.509784 113 15005ft 247kts
18-Aug-20 11:11 32.862705 -112.435571 113 15005ft 246kts
18-Aug-20 11:12 32.834071 -112.361430 113 15004ft 246kts
18-Aug-20 11:13 32.805445 -112.287462 114 15014ft 246kts
18-Aug-20 11:14 32.776502 -112.212903 114 14906ft 250kts
18-Aug-20 11:15 32.747779 -112.138979 114 15022ft 245kts
18-Aug-20 11:16 32.719025 -112.065143 114 15042ft 246kts
18-Aug-20 11:17 32.690215 -111.991374 114 15043ft 247kts
18-Aug-20 11:18 32.661322 -111.917544 114 15043ft 247kts
18-Aug-20 11:19 32.632375 -111.843722 114 15042ft 247kts
18-Aug-20 11:20 32.603279 -111.769726 114 14754ft 246kts
18-Aug-20 11:21 32.575561 -111.698915 114 13735ft 225kts
18-Aug-20 11:22 32.551818 -111.638006 116 12712ft 186kts
18-Aug-20 11:23 32.525516 -111.592819 124 11687ft 150kts
18-Aug-20 11:24 32.502500 -111.555922 124 10674ft 145kts
18-Aug-20 11:25 32.475158 -111.513142 125 9675ft 176kts
18-Aug-20 11:26 32.444441 -111.465054 126 8664ft 187kts
18-Aug-20 11:27 32.413596 -111.416423 125 8113ft 176kts
18-Aug-20 11:28 32.385342 -111.371493 125 8123ft 165kts
18-Aug-20 11:29 32.354710 -111.333120 167 8000ft 174kts
18-Aug-20 11:30 32.303584 -111.326123 171 7404ft 192kts
18-Aug-20 11:31 32.251295 -111.317862 170 7127ft 180kts
18-Aug-20 11:32 32.203733 -111.309858 170 7126ft 168kts
18-Aug-20 11:33 32.158197 -111.300553 158 6935ft 172kts
18-Aug-20 11:34 32.110931 -111.278615 157 6234ft 190kts
18-Aug-20 11:35 32.062093 -111.255749 157 5926ft 182kts
18-Aug-20 11:36 32.016502 -111.233728 149 5922ft 177kts
18-Aug-20 11:37 31.991983 -111.181734 116 5927ft 191kts
18-Aug-20 11:38 31.973976 -111.126147 90 5721ft 153kts
18-Aug-20 11:39 31.991076 -111.092360 46 5132ft 107kts
18-Aug-20 11:40 32.011754 -111.069902 47 5129ft 100kts
18-Aug-20 11:41 32.034232 -111.046618 46 4632ft 101kts
18-Aug-20 11:42 32.054278 -111.025220 37 4269ft 99kts
18-Aug-20 11:43 32.077662 -111.007615 44 3733ft 99kts
18-Aug-20 11:44 32.096118 -110.983913 49 3287ft 99kts
18-Aug-20 11:45 32.115009 -110.961732 48 2762ft 89kts
18-Aug-20 11:46 32.125932 -110.949838 4 2645ft 9kts
18-Aug-20 11:47 32.126519 -110.949817 0 2645ft 9kts

Navigation Log

Ident Type
Flight plan parsing failed, navigation log unavailable